Terminal Aerodrome Forecast
Issued by NWS Sioux Falls, SD

Home | Current Version | Previous Version | Text Only | Print | Product List | Glossary Off
Versions: 1 2 3 4 5 6 7 8 9 10 11 12 13 14 15 16 17 18 19

190
FTUS43 KFSD 031120
TAFHON
TAF
KHON 031120Z 0312/0412 16007KT P6SM SCT020
     FM031500 16008KT P6SM BKN025
     FM031900 16010KT P6SM BKN060
     FM040000 17010KT P6SM SCT120
     FM040600 20006KT P6SM BKN040=

USA.gov is the U.S. government's official web portal to all federal, state and local government web resources and services.